Time;durP1;ratioP1;P1;durP2;ratioP2;P2;SDS_P1;SDS_P2;PMS_P1;PMS_P2;Temp;Humidity;BMP_temperature;BMP_pressure;BME280_temperature;BME280_humidity;BME280_pressure;Samples;Min_cycle;Max_cycle;Signal;HPM_P1;HPM_P2
2021/08/27 00:00:41;;;;;;;14.00;5.50;;;16.10;99.90;;;;;;5077053;28;20207;-79
2021/08/27 00:03:07;;;;;;;12.43;5.23;;;16.00;99.90;;;;;;5077356;28;20251;-78
2021/08/27 00:05:33;;;;;;;14.00;5.27;;;16.00;99.90;;;;;;5077057;28;20196;-78
2021/08/27 00:07:58;;;;;;;10.70;5.60;;;15.90;99.90;;;;;;5076944;28;20650;-78
2021/08/27 00:10:25;;;;;;;11.33;5.17;;;15.90;99.90;;;;;;5077045;28;20175;-77
2021/08/27 00:12:52;;;;;;;11.37;4.87;;;15.90;99.90;;;;;;5058935;28;20240;-78
2021/08/27 00:15:18;;;;;;;11.23;5.07;;;15.80;99.90;;;;;;5077673;28;20183;-78
2021/08/27 00:17:44;;;;;;;10.40;4.33;;;15.90;99.90;;;;;;5076910;28;20605;-79
2021/08/27 00:20:10;;;;;;;14.80;5.03;;;15.90;99.90;;;;;;5076801;28;20192;-78
2021/08/27 00:22:36;;;;;;;10.43;4.50;;;15.80;99.90;;;;;;5077835;28;20257;-78
2021/08/27 00:25:04;;;;;;;14.83;5.17;;;15.80;99.90;;;;;;5082014;28;20168;-76
2021/08/27 00:27:30;;;;;;;11.93;4.60;;;15.70;99.90;;;;;;5082556;28;20176;-78
2021/08/27 00:29:56;;;;;;;12.83;5.07;;;15.70;99.90;;;;;;5077370;28;20173;-78
2021/08/27 00:32:22;;;;;;;10.50;4.67;;;15.70;99.90;;;;;;5077063;28;20210;-78
2021/08/27 00:34:48;;;;;;;11.50;4.43;;;15.80;99.90;;;;;;5075859;28;20256;-78
2021/08/27 00:37:13;;;;;;;15.17;4.63;;;15.80;99.90;;;;;;5078733;28;20188;-78
2021/08/27 00:39:39;;;;;;;10.60;4.00;;;15.80;99.90;;;;;;5090123;28;20181;-78
2021/08/27 00:42:05;;;;;;;11.77;4.20;;;15.90;99.90;;;;;;5098574;28;20168;-79
2021/08/27 00:44:31;;;;;;;7.47;3.83;;;15.80;99.90;;;;;;5098339;28;20187;-79
2021/08/27 00:46:57;;;;;;;10.10;3.67;;;15.70;99.90;;;;;;5081821;28;20643;-78
2021/08/27 00:49:22;;;;;;;12.20;3.73;;;15.60;99.90;;;;;;5085642;28;20180;-77
2021/08/27 00:51:49;;;;;;;12.10;4.00;;;15.70;99.90;;;;;;5092009;28;20207;-79
2021/08/27 00:54:19;;;;;;;12.40;3.70;;;15.60;99.90;;;;;;5084738;28;20202;-79
2021/08/27 00:56:46;;;;;;;9.97;3.83;;;15.80;99.90;;;;;;5077061;28;20253;-79
2021/08/27 00:59:11;;;;;;;10.97;4.17;;;15.60;99.90;;;;;;5076787;28;20172;-79
2021/08/27 01:01:37;;;;;;;8.70;3.27;;;15.60;99.90;;;;;;5076533;28;20263;-79
2021/08/27 01:04:03;;;;;;;11.47;3.83;;;15.60;99.90;;;;;;5076646;28;20234;-79
2021/08/27 01:06:40;;;;;;;7.77;3.37;;;15.50;99.90;;;;;;5057994;28;20184;-79
2021/08/27 01:09:39;;;;;;;8.83;3.80;;;15.70;99.90;;;;;;5077937;28;20218;-79
2021/08/27 01:12:37;;;;;;;7.83;3.33;;;15.60;99.90;;;;;;5079984;28;20271;-79
2021/08/27 01:15:45;;;;;;;8.27;3.60;;;15.60;99.90;;;;;;5097840;28;20195;-77
2021/08/27 01:18:21;;;;;;;8.73;3.07;;;15.50;99.90;;;;;;5080859;28;20148;-76
2021/08/27 01:21:29;;;;;;;6.57;3.23;;;15.50;99.90;;;;;;5066963;28;20540;-77
2021/08/27 01:24:00;;;;;;;10.23;3.57;;;15.50;99.90;;;;;;5077086;28;20197;-79
2021/08/27 01:26:43;;;;;;;7.23;3.17;;;15.40;99.90;;;;;;5076496;28;20168;-76
2021/08/27 01:29:10;;;;;;;7.50;3.17;;;15.40;99.90;;;;;;5076413;28;20164;-78
2021/08/27 01:31:41;;;;;;;9.30;3.37;;;15.50;99.90;;;;;;5058110;28;20192;-77
2021/08/27 01:34:24;;;;;;;10.97;3.13;;;15.60;99.90;;;;;;5076053;28;20168;-78
2021/08/27 01:36:53;;;;;;;8.63;3.50;;;15.60;99.90;;;;;;5075878;28;20251;-77
2021/08/27 01:39:20;;;;;;;8.60;3.30;;;15.60;99.90;;;;;;5075982;28;20628;-78
2021/08/27 01:41:51;;;;;;;9.60;3.40;;;15.60;99.90;;;;;;5076211;28;20534;-79
2021/08/27 01:44:21;;;;;;;8.00;3.40;;;15.50;99.90;;;;;;5075769;28;20393;-78
2021/08/27 01:46:48;;;;;;;8.03;2.93;;;15.50;99.90;;;;;;5057060;28;20169;-79
2021/08/27 01:49:15;;;;;;;10.20;3.07;;;15.50;99.90;;;;;;5074815;28;20182;-78
2021/08/27 01:51:43;;;;;;;8.47;3.30;;;15.60;99.90;;;;;;5057141;28;20206;-78
2021/08/27 01:54:09;;;;;;;7.60;3.27;;;15.60;99.90;;;;;;5073979;28;20168;-78
2021/08/27 01:56:37;;;;;;;9.40;2.93;;;15.60;99.90;;;;;;5075097;28;20173;-77
2021/08/27 01:59:05;;;;;;;8.50;3.23;;;15.60;99.90;;;;;;5074927;28;20164;-79
2021/08/27 02:01:32;;;;;;;8.57;2.63;;;15.60;99.80;;;;;;5074405;28;20160;-78
2021/08/27 02:04:03;;;;;;;6.43;2.77;;;15.80;99.60;;;;;;5074427;28;20167;-78
2021/08/27 02:06:33;;;;;;;8.27;2.97;;;15.70;99.30;;;;;;5074916;28;20247;-77
2021/08/27 02:09:00;;;;;;;7.77;2.57;;;15.50;99.70;;;;;;5074017;28;20202;-77
2021/08/27 02:11:27;;;;;;;9.90;2.50;;;15.60;99.60;;;;;;5075109;28;20235;-78
2021/08/27 02:13:54;;;;;;;8.77;2.70;;;15.50;99.70;;;;;;5074860;28;20176;-78
2021/08/27 02:16:20;;;;;;;10.70;2.37;;;15.50;99.70;;;;;;5076419;28;20168;-77
2021/08/27 02:18:46;;;;;;;6.50;2.10;;;15.40;99.50;;;;;;5060673;28;20213;-78
2021/08/27 02:21:12;;;;;;;7.17;2.50;;;15.40;99.70;;;;;;5080557;28;20255;-78
2021/08/27 02:23:41;;;;;;;6.60;2.60;;;15.50;99.70;;;;;;5061447;28;20172;-77
2021/08/27 02:26:08;;;;;;;6.40;2.50;;;15.40;99.60;;;;;;5058994;28;20195;-78
2021/08/27 02:28:35;;;;;;;7.00;2.43;;;15.60;99.70;;;;;;5075590;28;20164;-78
2021/08/27 02:31:01;;;;;;;10.40;2.80;;;15.70;99.20;;;;;;5074778;28;20174;-78
2021/08/27 02:33:28;;;;;;;6.87;2.27;;;15.90;98.90;;;;;;5074306;28;20222;-79
2021/08/27 02:35:56;;;;;;;8.13;2.30;;;16.00;98.00;;;;;;5074762;28;20168;-79
2021/08/27 02:38:23;;;;;;;6.73;2.47;;;16.00;97.50;;;;;;5056167;28;20262;-78
2021/08/27 02:40:49;;;;;;;6.97;2.50;;;16.10;97.10;;;;;;5073990;28;20183;-77
2021/08/27 02:43:15;;;;;;;6.83;2.63;;;16.20;97.00;;;;;;5054520;28;20200;-78
2021/08/27 02:45:41;;;;;;;6.67;2.50;;;16.10;97.20;;;;;;5074596;28;20172;-78
2021/08/27 02:48:07;;;;;;;6.97;2.43;;;16.20;97.10;;;;;;5078768;28;20160;-77
2021/08/27 02:50:38;;;;;;;7.70;3.07;;;16.20;96.80;;;;;;5059895;28;20531;-78
2021/08/27 02:53:25;;;;;;;7.53;2.40;;;16.20;96.30;;;;;;5077539;28;20219;-78
2021/08/27 02:56:02;;;;;;;7.57;2.37;;;16.20;96.70;;;;;;5073751;28;20176;-78
2021/08/27 02:58:32;;;;;;;6.77;2.33;;;16.20;96.60;;;;;;5073567;28;20169;-77
2021/08/27 03:01:19;;;;;;;7.73;2.50;;;16.30;96.50;;;;;;5073319;28;20148;-78
2021/08/27 03:04:18;;;;;;;8.23;2.53;;;16.30;96.30;;;;;;5073687;28;20160;-78
2021/08/27 03:07:05;;;;;;;8.50;2.87;;;16.30;96.10;;;;;;5063832;28;20192;-78
2021/08/27 03:09:38;;;;;;;7.63;2.57;;;16.10;96.30;;;;;;5055606;28;20586;-78
2021/08/27 03:12:06;;;;;;;8.67;2.90;;;16.10;97.00;;;;;;5073413;28;20295;-78
2021/08/27 03:14:43;;;;;;;6.50;2.30;;;16.10;96.70;;;;;;5055541;28;20201;-78
2021/08/27 03:17:14;;;;;;;10.03;2.93;;;16.20;96.40;;;;;;5073230;28;20631;-77
2021/08/27 03:19:50;;;;;;;7.73;2.40;;;16.00;96.80;;;;;;5073865;28;20172;-77
2021/08/27 03:22:41;;;;;;;8.37;2.73;;;16.00;96.90;;;;;;5074985;28;20302;-78
2021/08/27 03:25:10;;;;;;;7.70;2.90;;;16.10;96.70;;;;;;5079989;28;20164;-78
2021/08/27 03:27:50;;;;;;;12.83;3.20;;;16.00;96.90;;;;;;5080391;28;20172;-78
2021/08/27 03:30:19;;;;;;;10.47;3.07;;;15.90;97.40;;;;;;5076450;28;20164;-78
2021/08/27 03:32:51;;;;;;;7.97;3.27;;;15.90;97.00;;;;;;5058795;28;20204;-79
2021/08/27 03:35:21;;;;;;;7.47;3.30;;;15.90;96.90;;;;;;5055919;28;20168;-78
2021/08/27 03:37:50;;;;;;;7.33;2.60;;;15.90;97.20;;;;;;5073078;28;20164;-78
2021/08/27 03:40:19;;;;;;;7.07;2.80;;;15.90;97.40;;;;;;5073388;28;20682;-79
2021/08/27 03:42:46;;;;;;;8.83;3.23;;;16.00;96.90;;;;;;5055546;28;20160;-77
2021/08/27 03:45:12;;;;;;;8.10;3.17;;;16.00;97.00;;;;;;5054476;28;20184;-78
2021/08/27 03:47:42;;;;;;;8.63;3.37;;;16.00;97.10;;;;;;5074343;28;20172;-79
2021/08/27 03:50:10;;;;;;;7.53;3.33;;;16.00;97.00;;;;;;5077022;28;20236;-77
2021/08/27 03:52:39;;;;;;;11.40;3.40;;;16.00;97.00;;;;;;5073786;28;20203;-78
2021/08/27 03:55:09;;;;;;;7.07;2.80;;;16.00;96.50;;;;;;5075197;28;20310;-79
2021/08/27 03:57:36;;;;;;;10.97;3.20;;;16.00;96.40;;;;;;5074762;28;20184;-77
2021/08/27 04:00:04;;;;;;;11.40;3.87;;;15.90;96.20;;;;;;5080081;28;20198;-77
2021/08/27 04:02:30;;;;;;;6.83;3.03;;;15.90;96.60;;;;;;5092408;28;20172;-76
2021/08/27 04:05:17;;;;;;;8.70;3.00;;;15.80;97.20;;;;;;5089181;28;20188;-78
2021/08/27 04:07:43;;;;;;;9.70;3.70;;;15.80;97.60;;;;;;5057675;28;20263;-79
2021/08/27 04:10:11;;;;;;;9.83;3.43;;;15.70;97.50;;;;;;5073852;28;20153;-79
2021/08/27 04:12:40;;;;;;;11.40;4.00;;;15.70;97.70;;;;;;5055245;28;20204;-78
2021/08/27 04:15:08;;;;;;;9.33;3.53;;;15.60;98.00;;;;;;5072864;28;20241;-79
2021/08/27 04:17:34;;;;;;;8.77;3.60;;;15.50;98.30;;;;;;5073788;28;20157;-78
2021/08/27 04:19:59;;;;;;;9.17;2.97;;;15.70;98.10;;;;;;5073006;28;20172;-77
2021/08/27 04:22:25;;;;;;;8.93;3.87;;;15.60;97.60;;;;;;5073304;28;20169;-77
2021/08/27 04:24:51;;;;;;;10.47;3.30;;;15.70;97.50;;;;;;5076100;28;20217;-78
2021/08/27 04:27:16;;;;;;;7.67;3.13;;;15.60;97.90;;;;;;5082156;28;20234;-78
2021/08/27 04:29:42;;;;;;;6.70;3.40;;;15.30;98.50;;;;;;5063595;28;20222;-78
2021/08/27 04:32:08;;;;;;;6.67;3.40;;;15.30;98.90;;;;;;5073549;28;20211;-78
2021/08/27 04:34:34;;;;;;;7.97;3.53;;;15.30;98.80;;;;;;5073190;28;20512;-80
2021/08/27 04:37:00;;;;;;;8.97;3.57;;;15.20;99.10;;;;;;5073381;28;20218;-78
2021/08/27 04:39:27;;;;;;;8.50;3.47;;;15.10;99.20;;;;;;5072909;28;20249;-79
2021/08/27 04:41:53;;;;;;;7.33;3.60;;;15.10;99.60;;;;;;5074687;28;20628;-80
2021/08/27 04:44:19;;;;;;;11.80;3.80;;;15.10;99.80;;;;;;5076069;28;20214;-77
2021/08/27 04:46:45;;;;;;;8.83;3.50;;;15.00;99.90;;;;;;5076056;28;20652;-79
2021/08/27 04:49:10;;;;;;;8.40;3.90;;;14.90;99.90;;;;;;5075800;28;20262;-80
2021/08/27 04:51:36;;;;;;;7.00;3.50;;;14.90;99.90;;;;;;5057485;28;20206;-79
2021/08/27 04:54:02;;;;;;;13.50;3.83;;;15.00;99.90;;;;;;5076399;28;20176;-79
2021/08/27 04:56:28;;;;;;;9.13;4.53;;;15.10;99.90;;;;;;5075706;28;20176;-79
2021/08/27 04:58:54;;;;;;;9.43;3.90;;;15.20;99.90;;;;;;5076056;28;20168;-77
2021/08/27 05:01:19;;;;;;;9.47;3.70;;;15.20;99.80;;;;;;5075531;28;20195;-79
2021/08/27 05:03:45;;;;;;;8.90;4.10;;;14.90;99.90;;;;;;5075972;28;20210;-78
2021/08/27 05:06:11;;;;;;;11.27;3.90;;;15.20;99.90;;;;;;5075417;28;20194;-79
2021/08/27 05:08:36;;;;;;;11.23;4.10;;;15.20;99.80;;;;;;5076165;28;20601;-80
2021/08/27 05:11:03;;;;;;;9.93;3.63;;;15.20;99.50;;;;;;5076049;28;20199;-77
2021/08/27 05:13:29;;;;;;;10.70;3.97;;;15.40;99.10;;;;;;5076611;28;20227;-77
2021/08/27 05:15:55;;;;;;;8.90;4.03;;;15.40;98.90;;;;;;5077449;28;20168;-78
2021/08/27 05:18:21;;;;;;;9.57;3.03;;;15.50;98.60;;;;;;5081024;28;20229;-79
2021/08/27 05:20:47;;;;;;;8.07;3.60;;;15.60;98.40;;;;;;5082132;28;20184;-77
2021/08/27 05:23:13;;;;;;;9.93;3.70;;;15.60;98.20;;;;;;5067204;28;20263;-78
2021/08/27 05:25:38;;;;;;;9.27;3.40;;;15.60;98.00;;;;;;5098704;28;20195;-78
2021/08/27 05:28:04;;;;;;;11.30;3.90;;;15.50;98.20;;;;;;5097207;28;20185;-77
2021/08/27 05:30:31;;;;;;;10.10;4.90;;;15.60;98.50;;;;;;5089037;28;20180;-77
2021/08/27 05:32:57;;;;;;;9.60;3.53;;;15.70;98.20;;;;;;5060432;28;20610;-79
2021/08/27 05:35:25;;;;;;;10.17;4.03;;;15.80;98.10;;;;;;5060409;28;20172;-79
2021/08/27 05:37:56;;;;;;;10.97;3.70;;;15.80;97.60;;;;;;5076146;28;20187;-80
2021/08/27 05:40:23;;;;;;;9.83;4.07;;;15.70;97.20;;;;;;5075853;28;20157;-79
2021/08/27 05:42:49;;;;;;;12.13;3.60;;;15.70;97.90;;;;;;5075957;28;20206;-79
2021/08/27 05:45:15;;;;;;;13.70;3.57;;;15.80;97.40;;;;;;5075054;28;20176;-78
2021/08/27 05:47:42;;;;;;;7.53;3.37;;;15.80;96.90;;;;;;5077694;28;20160;-78
2021/08/27 05:50:11;;;;;;;12.53;3.27;;;15.80;96.80;;;;;;5058437;28;20203;-78
2021/08/27 05:52:37;;;;;;;7.37;2.93;;;15.90;96.10;;;;;;5076258;28;20254;-77
2021/08/27 05:55:03;;;;;;;9.53;2.93;;;15.70;96.70;;;;;;5078845;28;20172;-78
2021/08/27 05:57:29;;;;;;;8.23;3.10;;;15.60;97.20;;;;;;5085725;28;20172;-78
2021/08/27 05:59:56;;;;;;;8.47;2.80;;;15.60;97.10;;;;;;5097368;28;20264;-77
2021/08/27 06:02:22;;;;;;;7.37;2.60;;;15.80;97.30;;;;;;5077117;28;20183;-79
2021/08/27 06:04:47;;;;;;;8.17;2.83;;;15.60;97.20;;;;;;5084329;28;20652;-78
2021/08/27 06:07:13;;;;;;;8.93;2.80;;;15.80;96.80;;;;;;5061822;28;20180;-77
2021/08/27 06:09:39;;;;;;;9.30;3.00;;;15.90;96.70;;;;;;5077149;28;20168;-80
2021/08/27 06:12:09;;;;;;;8.17;3.00;;;16.00;96.30;;;;;;5058836;28;20196;-79
2021/08/27 06:14:35;;;;;;;9.87;2.93;;;16.00;96.10;;;;;;5058102;28;20252;-80
2021/08/27 06:17:00;;;;;;;8.17;2.50;;;16.20;94.80;;;;;;5057937;28;20686;-79
2021/08/27 06:19:27;;;;;;;5.60;2.47;;;16.40;94.50;;;;;;5075583;28;20169;-79
2021/08/27 06:21:57;;;;;;;6.97;2.57;;;16.40;93.80;;;;;;5075221;28;20168;-80
2021/08/27 06:24:24;;;;;;;7.13;2.83;;;16.20;94.30;;;;;;5057797;28;20175;-78
2021/08/27 06:26:49;;;;;;;7.87;2.40;;;16.20;94.60;;;;;;5073659;28;20183;-78
2021/08/27 06:29:15;;;;;;;8.07;2.43;;;16.20;94.90;;;;;;5074935;28;20173;-78
2021/08/27 06:31:41;;;;;;;8.37;3.27;;;16.30;94.40;;;;;;5059000;28;20220;-80
2021/08/27 06:34:07;;;;;;;7.53;2.30;;;16.40;93.50;;;;;;5073890;28;20694;-78
2021/08/27 06:36:33;;;;;;;7.77;2.30;;;16.50;93.10;;;;;;5068869;28;20586;-78
2021/08/27 06:38:59;;;;;;;9.37;2.70;;;16.60;92.40;;;;;;5057562;28;20176;-78
2021/08/27 06:41:24;;;;;;;10.37;2.70;;;16.70;92.10;;;;;;5053352;28;20170;-77
2021/08/27 06:43:50;;;;;;;7.77;2.87;;;16.50;92.00;;;;;;5055148;28;20637;-79
2021/08/27 06:46:22;;;;;;;8.07;2.63;;;16.30;92.90;;;;;;5053761;28;20169;-79
2021/08/27 06:48:48;;;;;;;8.67;2.77;;;16.50;93.40;;;;;;5055219;28;20169;-77
2021/08/27 06:51:14;;;;;;;7.17;2.17;;;16.60;92.70;;;;;;5053493;28;20165;-79
2021/08/27 06:53:40;;;;;;;6.67;2.13;;;16.60;92.40;;;;;;5052673;28;20197;-78
2021/08/27 06:56:06;;;;;;;7.80;2.33;;;16.60;90.80;;;;;;5055428;28;20260;-78
2021/08/27 06:58:33;;;;;;;8.97;2.70;;;16.60;92.10;;;;;;5052667;28;20649;-78
2021/08/27 07:00:59;;;;;;;11.63;2.63;;;16.60;91.10;;;;;;5054557;28;20161;-77
2021/08/27 07:03:25;;;;;;;5.20;2.00;;;16.80;91.40;;;;;;5053631;28;20631;-79
2021/08/27 07:05:51;;;;;;;9.77;2.80;;;16.80;89.40;;;;;;5053438;28;20193;-78
2021/08/27 07:08:17;;;;;;;8.67;2.00;;;16.90;90.20;;;;;;5053936;28;20165;-79
2021/08/27 07:10:42;;;;;;;8.00;2.00;;;17.00;88.10;;;;;;5036038;28;20268;-80
2021/08/27 07:13:09;;;;;;;6.53;2.20;;;16.90;83.20;;;;;;5054046;28;20205;-79
2021/08/27 07:15:36;;;;;;;7.07;1.90;;;16.90;81.90;;;;;;5052965;28;20234;-78
2021/08/27 07:18:02;;;;;;;7.43;1.80;;;16.90;82.60;;;;;;5037275;28;20514;-78
2021/08/27 07:20:28;;;;;;;8.07;2.33;;;16.90;82.90;;;;;;5054338;28;20252;-77
2021/08/27 07:22:55;;;;;;;9.30;1.83;;;17.00;80.00;;;;;;5053907;28;20200;-78
2021/08/27 07:25:21;;;;;;;10.80;2.27;;;16.80;80.60;;;;;;5056040;28;20165;-77
2021/08/27 07:27:49;;;;;;;8.27;2.23;;;16.80;81.60;;;;;;5058802;28;20173;-79
2021/08/27 07:30:16;;;;;;;11.00;2.10;;;16.90;81.30;;;;;;5039847;28;20168;-79
2021/08/27 07:32:42;;;;;;;12.53;2.03;;;17.10;79.90;;;;;;5067533;28;20184;-77
2021/08/27 07:35:09;;;;;;;10.53;2.73;;;17.10;77.80;;;;;;5067375;28;20207;-79
2021/08/27 07:37:38;;;;;;;11.37;2.60;;;17.10;78.90;;;;;;5040165;28;20187;-78
2021/08/27 07:40:08;;;;;;;7.83;2.13;;;17.20;79.10;;;;;;5054943;28;20169;-78
2021/08/27 07:42:37;;;;;;;6.87;2.10;;;17.30;76.50;;;;;;5054167;28;20526;-78
2021/08/27 07:45:03;;;;;;;7.57;1.90;;;17.30;74.10;;;;;;5055218;28;20258;-80
2021/08/27 07:47:29;;;;;;;5.53;2.03;;;17.30;75.80;;;;;;5055846;28;20177;-78
2021/08/27 07:49:55;;;;;;;7.30;1.90;;;17.30;75.10;;;;;;5057792;28;20669;-78
2021/08/27 07:52:20;;;;;;;8.30;2.33;;;17.30;73.40;;;;;;5061165;28;20204;-79
2021/08/27 07:54:48;;;;;;;4.20;1.30;;;17.30;72.90;;;;;;5058525;28;20204;-76
2021/08/27 07:57:14;;;;;;;8.83;2.20;;;17.30;73.70;;;;;;5051171;28;20189;-78
2021/08/27 07:59:39;;;;;;;8.17;2.00;;;17.50;74.50;;;;;;5054812;28;20508;-80
2021/08/27 08:02:08;;;;;;;6.50;1.90;;;17.60;73.60;;;;;;5053517;28;20172;-78
2021/08/27 08:04:34;;;;;;;7.13;1.93;;;17.70;71.60;;;;;;5053495;28;20163;-77
2021/08/27 08:06:59;;;;;;;4.47;1.53;;;17.80;70.90;;;;;;5053502;28;20181;-78
2021/08/27 08:09:26;;;;;;;8.43;2.23;;;17.90;70.00;;;;;;5053471;28;20187;-78
2021/08/27 08:11:51;;;;;;;6.83;1.87;;;18.00;67.80;;;;;;5053115;28;20201;-78
2021/08/27 08:14:17;;;;;;;6.10;1.80;;;18.00;66.90;;;;;;5055076;28;20190;-77
2021/08/27 08:16:44;;;;;;;7.70;1.70;;;18.00;69.40;;;;;;5057209;28;20215;-78
2021/08/27 08:19:10;;;;;;;6.63;1.90;;;18.00;68.30;;;;;;5057025;28;20172;-79
2021/08/27 08:21:36;;;;;;;4.90;1.90;;;17.90;68.10;;;;;;5040694;28;20636;-78
2021/08/27 08:24:02;;;;;;;8.90;2.33;;;17.80;70.80;;;;;;5057672;28;20178;-80
2021/08/27 08:26:29;;;;;;;5.23;1.57;;;17.90;71.60;;;;;;5056950;28;20243;-78
2021/08/27 08:28:55;;;;;;;6.40;1.50;;;17.90;65.50;;;;;;5057847;28;20176;-79
2021/08/27 08:31:21;;;;;;;5.13;1.50;;;17.80;65.30;;;;;;5057526;28;20643;-81
2021/08/27 08:33:49;;;;;;;8.33;1.57;;;17.90;61.60;;;;;;5056984;28;20684;-79
2021/08/27 08:36:16;;;;;;;3.90;0.97;;;17.90;62.60;;;;;;5057841;28;20383;-79
2021/08/27 08:38:42;;;;;;;5.43;1.50;;;18.10;60.10;;;;;;5057118;28;20177;-78
2021/08/27 08:41:08;;;;;;;5.30;1.47;;;18.10;59.80;;;;;;5057052;28;20192;-78
2021/08/27 08:43:33;;;;;;;9.13;4.00;;;18.10;57.10;;;;;;5057317;28;20657;-78
2021/08/27 08:46:00;;;;;;;11.87;2.57;;;18.10;56.60;;;;;;5057469;28;20183;-80
2021/08/27 08:48:27;;;;;;;7.53;1.70;;;18.20;60.30;;;;;;5057953;28;20157;-79
2021/08/27 08:50:54;;;;;;;4.00;1.50;;;18.20;63.20;;;;;;5056717;28;20178;-79
2021/08/27 08:53:22;;;;;;;7.83;1.70;;;18.30;65.20;;;;;;5057362;28;20277;-80
2021/08/27 08:55:49;;;;;;;8.03;2.43;;;18.20;62.80;;;;;;5056977;28;20173;-80
2021/08/27 08:58:15;;;;;;;4.43;1.53;;;18.20;62.70;;;;;;5056783;28;20163;-78
2021/08/27 09:00:41;;;;;;;6.33;1.70;;;18.20;63.10;;;;;;5057139;28;20165;-80
2021/08/27 09:03:07;;;;;;;6.60;1.30;;;18.20;63.50;;;;;;5056160;28;20539;-78
2021/08/27 09:05:32;;;;;;;4.83;1.40;;;18.40;58.60;;;;;;5057170;28;20251;-80
2021/08/27 09:07:58;;;;;;;7.03;1.67;;;18.20;58.30;;;;;;5056899;28;20202;-78
2021/08/27 09:10:24;;;;;;;6.60;1.50;;;18.10;62.40;;;;;;5038486;28;20256;-79
2021/08/27 09:12:51;;;;;;;5.80;1.70;;;18.10;64.60;;;;;;5057003;28;20201;-78
2021/08/27 09:15:23;;;;;;;5.20;1.70;;;18.10;63.70;;;;;;5056842;28;20618;-79
2021/08/27 09:17:50;;;;;;;7.30;1.90;;;18.10;59.40;;;;;;5056537;28;20216;-79
2021/08/27 09:20:26;;;;;;;4.57;1.13;;;18.00;58.70;;;;;;5058939;28;20183;-79
2021/08/27 09:22:53;;;;;;;4.20;1.20;;;18.00;57.60;;;;;;5058185;28;20208;-80
2021/08/27 09:25:31;;;;;;;6.73;2.20;;;18.00;61.20;;;;;;5059558;28;20181;-79
2021/08/27 09:28:17;;;;;;;8.47;2.13;;;18.10;64.70;;;;;;5070375;28;20166;-79
2021/08/27 09:30:55;;;;;;;8.57;1.80;;;18.30;65.30;;;;;;5073892;28;20164;-78
2021/08/27 09:33:27;;;;;;;7.97;2.03;;;18.40;65.40;;;;;;5063840;28;20204;-77
2021/08/27 09:36:04;;;;;;;8.07;2.10;;;18.50;62.50;;;;;;5057604;28;20637;-79
2021/08/27 09:38:35;;;;;;;6.53;2.27;;;18.60;60.90;;;;;;5057913;28;20211;-78
2021/08/27 09:41:19;;;;;;;8.03;2.20;;;18.70;59.30;;;;;;5058441;28;20211;-79
2021/08/27 09:44:05;;;;;;;6.40;1.87;;;18.50;56.00;;;;;;5057773;28;20188;-80
2021/08/27 09:46:43;;;;;;;5.60;1.87;;;18.30;56.40;;;;;;5060131;28;20176;-79
2021/08/27 09:49:29;;;;;;;6.43;1.97;;;18.30;56.40;;;;;;5058840;28;20649;-79
2021/08/27 09:51:56;;;;;;;6.80;2.23;;;18.30;56.20;;;;;;5059082;28;20191;-80
2021/08/27 09:54:27;;;;;;;6.33;1.83;;;18.30;58.30;;;;;;5058507;28;20161;-79
2021/08/27 09:56:55;;;;;;;5.93;2.00;;;18.50;57.70;;;;;;5077722;28;20223;-80
2021/08/27 09:59:55;;;;;;;6.90;2.17;;;18.30;60.20;;;;;;5064653;28;20223;-80
2021/08/27 10:02:31;;;;;;;9.00;2.67;;;18.30;63.10;;;;;;5013379;28;20176;-79
2021/08/27 10:04:59;;;;;;;7.43;2.60;;;18.40;62.50;;;;;;5055540;28;20504;-81
2021/08/27 10:07:32;;;;;;;7.40;2.77;;;18.20;64.70;;;;;;5055348;28;20235;-78
2021/08/27 10:09:59;;;;;;;6.23;1.80;;;18.20;64.70;;;;;;5055458;28;20246;-78
2021/08/27 10:12:27;;;;;;;6.77;2.60;;;18.20;63.20;;;;;;5055302;28;20191;-77
2021/08/27 10:14:53;;;;;;;5.10;1.90;;;18.30;61.60;;;;;;5056014;28;20696;-78
2021/08/27 10:17:19;;;;;;;7.30;1.77;;;18.40;59.70;;;;;;5054434;28;20167;-77
2021/08/27 10:19:45;;;;;;;5.10;1.73;;;18.60;58.10;;;;;;5055192;28;20166;-79
2021/08/27 10:22:11;;;;;;;5.13;1.87;;;18.70;56.00;;;;;;5037598;28;20260;-78
2021/08/27 10:24:37;;;;;;;5.83;1.90;;;18.80;56.50;;;;;;5055199;28;20207;-79
2021/08/27 10:27:07;;;;;;;4.80;1.67;;;18.90;53.80;;;;;;5037631;28;20219;-79
2021/08/27 10:29:36;;;;;;;4.73;1.70;;;19.10;51.40;;;;;;5067728;28;20220;-78
2021/08/27 10:32:02;;;;;;;7.60;2.07;;;18.90;51.20;;;;;;5042236;28;20202;-79
2021/08/27 10:34:45;;;;;;;8.07;2.03;;;18.90;53.30;;;;;;5056890;28;20258;-78
2021/08/27 10:37:40;;;;;;;9.20;1.80;;;19.00;50.80;;;;;;5055296;28;20193;-78
2021/08/27 10:40:28;;;;;;;4.63;1.60;;;19.00;49.10;;;;;;5054968;28;20703;-78
2021/08/27 10:43:02;;;;;;;7.07;1.87;;;19.10;40.60;;;;;;5054745;28;20174;-78
2021/08/27 10:45:40;;;;;;;3.23;1.50;;;19.10;41.80;;;;;;5057398;28;20228;-77
2021/08/27 10:48:24;;;;;;;4.87;1.77;;;19.10;42.80;;;;;;5057161;28;20168;-79
2021/08/27 10:50:53;;;;;;;5.97;1.90;;;19.00;43.80;;;;;;5069073;28;20185;-79
2021/08/27 10:53:34;;;;;;;6.63;1.80;;;19.10;46.20;;;;;;5061973;28;20208;-77
2021/08/27 10:56:09;;;;;;;8.87;1.90;;;19.20;41.60;;;;;;5058834;28;20258;-79
2021/08/27 10:58:50;;;;;;;8.00;2.63;;;19.30;38.50;;;;;;5056305;28;20645;-79
2021/08/27 11:01:33;;;;;;;7.10;1.57;;;19.10;37.80;;;;;;5055473;28;20240;-78
2021/08/27 11:04:16;;;;;;;4.70;1.50;;;19.20;33.10;;;;;;5055730;28;20256;-79
2021/08/27 11:06:50;;;;;;;4.77;1.83;;;19.20;29.20;;;;;;5054915;28;20629;-80
2021/08/27 11:09:17;;;;;;;6.40;1.37;;;19.10;31.80;;;;;;5054328;28;20249;-79
2021/08/27 11:11:43;;;;;;;7.03;1.73;;;19.00;28.90;;;;;;5036484;28;20179;-80
2021/08/27 11:14:18;;;;;;;4.43;1.40;;;19.10;4.90;;;;;;5052948;28;20200;-78
2021/08/27 11:16:54;;;;;;;6.27;1.67;;;19.00;1.00;;;;;;5054968;28;20161;-80
2021/08/27 11:19:26;;;;;;;6.27;1.70;;;19.10;1.00;;;;;;5053449;28;20172;-78
2021/08/27 11:21:56;;;;;;;9.83;1.80;;;19.00;2.70;;;;;;5055028;28;20698;-79
2021/08/27 11:24:24;;;;;;;5.07;1.67;;;19.10;16.70;;;;;;5052526;28;20193;-78
2021/08/27 11:27:02;;;;;;;4.00;1.10;;;19.20;20.00;;;;;;5053931;28;20174;-79
2021/08/27 11:29:39;;;;;;;3.17;1.10;;;19.10;19.00;;;;;;5054129;28;20179;-79
2021/08/27 11:32:34;;;;;;;3.40;1.43;;;19.00;17.50;;;;;;5054114;28;20257;-79
2021/08/27 11:35:07;;;;;;;6.93;1.93;;;19.10;11.40;;;;;;5053824;28;20661;-80
2021/08/27 11:37:35;;;;;;;4.13;1.50;;;18.80;13.90;;;;;;5053955;28;20195;-79
2021/08/27 11:40:02;;;;;;;4.93;1.63;;;18.90;19.40;;;;;;5036448;28;20659;-78
2021/08/27 11:42:30;;;;;;;3.73;1.50;;;18.90;19.50;;;;;;5054214;28;20177;-78
2021/08/27 11:45:07;;;;;;;7.70;1.43;;;18.70;23.20;;;;;;5054161;28;20192;-79
2021/08/27 11:47:48;;;;;;;9.20;2.37;;;18.70;29.70;;;;;;5054370;28;20222;-78
2021/08/27 11:50:41;;;;;;;5.83;2.03;;;18.60;36.80;;;;;;5055827;28;20267;-78
2021/08/27 11:53:09;;;;;;;4.10;1.60;;;18.30;25.80;;;;;;5057034;28;20571;-78
2021/08/27 11:55:42;;;;;;;5.10;1.60;;;18.30;38.40;;;;;;5057617;28;20179;-79
2021/08/27 11:58:08;;;;;;;5.80;1.80;;;18.40;39.70;;;;;;5058167;28;20169;-78
2021/08/27 12:00:38;;;;;;;5.80;1.83;;;18.50;40.40;;;;;;5058282;28;20172;-79
2021/08/27 12:03:05;;;;;;;6.47;2.00;;;18.50;39.10;;;;;;5059382;28;20172;-78
2021/08/27 12:05:32;;;;;;;5.10;1.70;;;18.60;35.30;;;;;;5059023;28;20629;-78
2021/08/27 12:08:01;;;;;;;4.67;1.80;;;18.60;28.80;;;;;;5058291;28;20653;-80
2021/08/27 12:10:31;;;;;;;6.53;1.73;;;18.70;27.80;;;;;;5058255;28;20172;-79
2021/08/27 12:12:58;;;;;;;7.47;1.77;;;18.70;25.80;;;;;;5058556;28;20211;-78
2021/08/27 12:15:30;;;;;;;5.60;1.97;;;18.80;18.90;;;;;;5058033;28;20165;-80
2021/08/27 12:17:58;;;;;;;5.37;2.13;;;18.80;22.90;;;;;;5058912;28;20307;-79
2021/08/27 12:20:30;;;;;;;5.73;2.10;;;18.80;19.40;;;;;;5058227;28;20215;-79
2021/08/27 12:23:40;;;;;;;7.30;2.13;;;18.80;19.90;;;;;;5058908;28;20517;-80
2021/08/27 12:26:08;;;;;;;5.93;1.80;;;18.80;17.90;;;;;;5050042;28;20225;-78
2021/08/27 12:28:39;;;;;;;7.43;1.90;;;18.90;21.70;;;;;;5058409;28;20179;-79
2021/08/27 12:31:06;;;;;;;5.93;2.20;;;19.00;21.60;;;;;;5058526;28;20287;-79
2021/08/27 12:33:36;;;;;;;6.47;2.10;;;19.00;21.30;;;;;;5058653;28;20239;-78
2021/08/27 12:36:03;;;;;;;5.23;2.30;;;19.20;20.60;;;;;;5040249;28;20188;-78
2021/08/27 12:38:28;;;;;;;9.07;2.40;;;19.20;19.80;;;;;;5056736;28;20177;-79
2021/08/27 12:40:54;;;;;;;7.43;2.13;;;19.40;17.30;;;;;;5056970;28;20656;-79
2021/08/27 12:43:24;;;;;;;7.37;2.47;;;19.50;14.60;;;;;;5060205;28;20717;-78
2021/08/27 12:45:53;;;;;;;7.60;2.50;;;19.60;12.70;;;;;;5061017;28;20263;-78
2021/08/27 12:48:18;;;;;;;6.07;2.17;;;19.60;13.20;;;;;;5039052;28;20178;-78
2021/08/27 12:50:46;;;;;;;6.90;2.33;;;19.50;18.50;;;;;;5057839;28;20255;-78
2021/08/27 12:53:13;;;;;;;5.77;2.73;;;19.50;19.20;;;;;;5057251;28;20202;-78
2021/08/27 12:55:39;;;;;;;6.43;2.57;;;19.40;12.40;;;;;;5057870;28;20204;-81
2021/08/27 12:58:05;;;;;;;8.50;2.47;;;19.40;12.60;;;;;;5057872;28;20173;-79